sensor_id;sensor_type;location;lat;lon;timestamp;pressure;altitude;pressure_sealevel;temperature;humidity
47080;BME280;33067;49.296;14.470;2023-04-03T00:01:55;97589.35;;;5.97;46.52
47080;BME280;33067;49.296;14.470;2023-04-03T00:04:20;97586.55;;;6.00;45.82
47080;BME280;33067;49.296;14.470;2023-04-03T00:06:46;97586.68;;;6.21;45.56
47080;BME280;33067;49.296;14.470;2023-04-03T00:09:11;97587.61;;;6.26;46.67
47080;BME280;33067;49.296;14.470;2023-04-03T00:11:37;97587.60;;;5.83;46.92
47080;BME280;33067;49.296;14.470;2023-04-03T00:14:02;97584.16;;;5.35;47.41
47080;BME280;33067;49.296;14.470;2023-04-03T00:16:28;97584.55;;;5.75;47.39
47080;BME280;33067;49.296;14.470;2023-04-03T00:18:54;97590.07;;;5.26;48.17
47080;BME280;33067;49.296;14.470;2023-04-03T00:21:19;97589.60;;;4.62;50.10
47080;BME280;33067;49.296;14.470;2023-04-03T00:23:44;97587.74;;;4.96;49.37
47080;BME280;33067;49.296;14.470;2023-04-03T00:26:10;97589.56;;;3.80;51.35
47080;BME280;33067;49.296;14.470;2023-04-03T00:28:35;97588.10;;;3.80;52.14
47080;BME280;33067;49.296;14.470;2023-04-03T00:31:01;97587.53;;;4.59;51.15
47080;BME280;33067;49.296;14.470;2023-04-03T00:33:27;97588.75;;;4.55;50.14
47080;BME280;33067;49.296;14.470;2023-04-03T00:35:52;97584.32;;;3.81;52.32
47080;BME280;33067;49.296;14.470;2023-04-03T00:38:18;97587.75;;;4.23;51.59
47080;BME280;33067;49.296;14.470;2023-04-03T00:40:47;97588.45;;;3.37;53.02
47080;BME280;33067;49.296;14.470;2023-04-03T00:43:13;97584.27;;;3.66;52.81
47080;BME280;33067;49.296;14.470;2023-04-03T00:45:36;97587.16;;;3.44;53.60
47080;BME280;33067;49.296;14.470;2023-04-03T00:48:01;97588.47;;;3.11;55.01
47080;BME280;33067;49.296;14.470;2023-04-03T00:50:26;97589.54;;;3.64;53.94
47080;BME280;33067;49.296;14.470;2023-04-03T00:52:51;97590.25;;;3.54;53.53
47080;BME280;33067;49.296;14.470;2023-04-03T00:55:16;97593.18;;;3.46;53.56
47080;BME280;33067;49.296;14.470;2023-04-03T00:57:42;97588.95;;;3.67;52.93
47080;BME280;33067;49.296;14.470;2023-04-03T01:00:09;97589.08;;;3.48;52.80
47080;BME280;33067;49.296;14.470;2023-04-03T01:02:32;97589.75;;;3.79;52.65
47080;BME280;33067;49.296;14.470;2023-04-03T01:04:57;97591.87;;;3.77;52.52
47080;BME280;33067;49.296;14.470;2023-04-03T01:07:26;97589.79;;;3.99;52.30
47080;BME280;33067;49.296;14.470;2023-04-03T01:09:51;97588.53;;;3.67;52.94
47080;BME280;33067;49.296;14.470;2023-04-03T01:12:16;97589.52;;;4.09;52.11
47080;BME280;33067;49.296;14.470;2023-04-03T01:14:39;97589.82;;;4.09;51.66
47080;BME280;33067;49.296;14.470;2023-04-03T01:19:31;97590.53;;;4.05;51.84
47080;BME280;33067;49.296;14.470;2023-04-03T01:22:05;97592.15;;;4.26;51.81
47080;BME280;33067;49.296;14.470;2023-04-03T01:24:29;97590.23;;;3.94;51.97
47080;BME280;33067;49.296;14.470;2023-04-03T01:26:46;97590.72;;;4.38;51.50
47080;BME280;33067;49.296;14.470;2023-04-03T01:29:12;97590.33;;;4.02;51.44
47080;BME280;33067;49.296;14.470;2023-04-03T01:31:46;97586.31;;;3.72;52.61
47080;BME280;33067;49.296;14.470;2023-04-03T01:34:03;97589.31;;;3.79;51.92
47080;BME280;33067;49.296;14.470;2023-04-03T01:36:30;97590.17;;;4.20;50.80
47080;BME280;33067;49.296;14.470;2023-04-03T01:38:55;97591.37;;;4.21;50.62
47080;BME280;33067;49.296;14.470;2023-04-03T01:41:20;97590.74;;;2.91;54.15
47080;BME280;33067;49.296;14.470;2023-04-03T01:43:45;97592.65;;;4.00;51.82
47080;BME280;33067;49.296;14.470;2023-04-03T01:46:10;97592.35;;;3.77;52.24
47080;BME280;33067;49.296;14.470;2023-04-03T01:48:36;97592.91;;;4.00;51.92
47080;BME280;33067;49.296;14.470;2023-04-03T01:51:01;97588.75;;;2.94;53.67
47080;BME280;33067;49.296;14.470;2023-04-03T01:53:27;97593.29;;;3.03;54.14
47080;BME280;33067;49.296;14.470;2023-04-03T01:55:53;97597.86;;;3.38;53.65
47080;BME280;33067;49.296;14.470;2023-04-03T01:58:18;97598.83;;;2.83;55.15
47080;BME280;33067;49.296;14.470;2023-04-03T02:00:43;97600.13;;;3.29;53.45
47080;BME280;33067;49.296;14.470;2023-04-03T02:03:08;97601.88;;;3.69;52.58
47080;BME280;33067;49.296;14.470;2023-04-03T02:05:34;97601.52;;;3.65;52.21
47080;BME280;33067;49.296;14.470;2023-04-03T02:07:59;97600.18;;;3.61;52.50
47080;BME280;33067;49.296;14.470;2023-04-03T02:12:58;97594.64;;;3.10;53.48
47080;BME280;33067;49.296;14.470;2023-04-03T02:15:24;97594.57;;;3.51;52.46
47080;BME280;33067;49.296;14.470;2023-04-03T02:17:49;97597.58;;;3.65;52.35
47080;BME280;33067;49.296;14.470;2023-04-03T02:20:15;97598.66;;;3.71;52.53
47080;BME280;33067;49.296;14.470;2023-04-03T02:22:40;97601.17;;;3.31;52.70
47080;BME280;33067;49.296;14.470;2023-04-03T02:25:07;97601.80;;;4.23;51.34
47080;BME280;33067;49.296;14.470;2023-04-03T02:27:32;97600.41;;;3.82;51.88
47080;BME280;33067;49.296;14.470;2023-04-03T02:29:57;97605.11;;;3.31;52.97
47080;BME280;33067;49.296;14.470;2023-04-03T02:32:23;97602.14;;;3.26;52.56
47080;BME280;33067;49.296;14.470;2023-04-03T02:34:48;97602.46;;;2.99;53.65
47080;BME280;33067;49.296;14.470;2023-04-03T02:37:13;97600.37;;;3.54;52.97
47080;BME280;33067;49.296;14.470;2023-04-03T02:39:39;97601.20;;;3.77;52.41
47080;BME280;33067;49.296;14.470;2023-04-03T02:42:05;97601.75;;;3.37;53.23
47080;BME280;33067;49.296;14.470;2023-04-03T02:44:30;97603.47;;;3.69;52.72
47080;BME280;33067;49.296;14.470;2023-04-03T02:46:55;97603.68;;;3.29;53.17
47080;BME280;33067;49.296;14.470;2023-04-03T02:49:21;97604.65;;;3.39;53.05
47080;BME280;33067;49.296;14.470;2023-04-03T02:51:46;97604.50;;;3.88;52.10
47080;BME280;33067;49.296;14.470;2023-04-03T02:54:12;97606.13;;;3.97;51.77
47080;BME280;33067;49.296;14.470;2023-04-03T02:56:38;97612.96;;;4.30;50.94
47080;BME280;33067;49.296;14.470;2023-04-03T02:59:03;97609.26;;;4.03;51.63
47080;BME280;33067;49.296;14.470;2023-04-03T03:01:29;97610.11;;;4.41;50.66
47080;BME280;33067;49.296;14.470;2023-04-03T03:03:55;97607.15;;;4.11;51.12
47080;BME280;33067;49.296;14.470;2023-04-03T03:06:20;97610.08;;;3.90;51.07
47080;BME280;33067;49.296;14.470;2023-04-03T03:08:45;97611.05;;;4.55;50.61
47080;BME280;33067;49.296;14.470;2023-04-03T03:11:11;97613.87;;;3.53;52.33
47080;BME280;33067;49.296;14.470;2023-04-03T03:13:36;97609.97;;;3.94;51.59
47080;BME280;33067;49.296;14.470;2023-04-03T03:16:02;97608.12;;;3.93;51.66
47080;BME280;33067;49.296;14.470;2023-04-03T03:18:27;97611.21;;;3.86;51.58
47080;BME280;33067;49.296;14.470;2023-04-03T03:20:53;97609.44;;;4.03;51.21
47080;BME280;33067;49.296;14.470;2023-04-03T03:23:18;97609.71;;;3.71;51.59
47080;BME280;33067;49.296;14.470;2023-04-03T03:25:44;97609.44;;;2.80;53.51
47080;BME280;33067;49.296;14.470;2023-04-03T03:28:09;97605.51;;;3.30;53.02
47080;BME280;33067;49.296;14.470;2023-04-03T03:30:35;97608.83;;;3.44;52.96
47080;BME280;33067;49.296;14.470;2023-04-03T03:33:00;97609.27;;;3.75;51.71
47080;BME280;33067;49.296;14.470;2023-04-03T03:35:26;97606.51;;;3.68;51.84
47080;BME280;33067;49.296;14.470;2023-04-03T03:37:52;97607.52;;;3.57;51.79
47080;BME280;33067;49.296;14.470;2023-04-03T03:40:17;97603.87;;;3.96;50.75
47080;BME280;33067;49.296;14.470;2023-04-03T03:42:43;97607.64;;;3.37;52.12
47080;BME280;33067;49.296;14.470;2023-04-03T03:45:10;97609.48;;;3.38;51.99
47080;BME280;33067;49.296;14.470;2023-04-03T03:47:33;97611.34;;;2.81;52.93
47080;BME280;33067;49.296;14.470;2023-04-03T03:49:59;97616.50;;;2.73;52.91
47080;BME280;33067;49.296;14.470;2023-04-03T03:52:25;97614.62;;;3.21;52.33
47080;BME280;33067;49.296;14.470;2023-04-03T03:54:50;97613.47;;;2.62;53.49
47080;BME280;33067;49.296;14.470;2023-04-03T03:57:15;97620.93;;;2.14;55.33
47080;BME280;33067;49.296;14.470;2023-04-03T03:59:40;97621.24;;;2.33;54.98
47080;BME280;33067;49.296;14.470;2023-04-03T04:02:06;97615.13;;;2.04;54.57
47080;BME280;33067;49.296;14.470;2023-04-03T04:04:31;97613.30;;;2.99;52.19
47080;BME280;33067;49.296;14.470;2023-04-03T04:06:57;97612.67;;;2.81;52.59
47080;BME280;33067;49.296;14.470;2023-04-03T04:09:22;97617.04;;;2.87;52.49
47080;BME280;33067;49.296;14.470;2023-04-03T04:11:47;97610.57;;;3.54;50.89
47080;BME280;33067;49.296;14.470;2023-04-03T04:14:12;97621.31;;;2.29;53.34
47080;BME280;33067;49.296;14.470;2023-04-03T04:16:38;97626.09;;;1.80;54.61
47080;BME280;33067;49.296;14.470;2023-04-03T04:19:03;97625.17;;;3.07;52.30
47080;BME280;33067;49.296;14.470;2023-04-03T04:21:28;97631.46;;;3.06;51.64
47080;BME280;33067;49.296;14.470;2023-04-03T04:23:54;97635.92;;;2.98;51.85
47080;BME280;33067;49.296;14.470;2023-04-03T04:26:19;97635.87;;;2.91;51.31
47080;BME280;33067;49.296;14.470;2023-04-03T04:28:44;97646.29;;;1.56;54.50
47080;BME280;33067;49.296;14.470;2023-04-03T04:31:09;97649.32;;;1.81;51.11
47080;BME280;33067;49.296;14.470;2023-04-03T04:33:35;97658.54;;;0.60;52.40
47080;BME280;33067;49.296;14.470;2023-04-03T04:36:00;97648.23;;;1.62;50.31
47080;BME280;33067;49.296;14.470;2023-04-03T04:38:26;97656.57;;;0.23;51.65
47080;BME280;33067;49.296;14.470;2023-04-03T04:40:52;97661.91;;;0.32;52.58
47080;BME280;33067;49.296;14.470;2023-04-03T04:43:17;97660.17;;;-0.09;53.55
47080;BME280;33067;49.296;14.470;2023-04-03T04:45:43;97669.65;;;0.57;51.93
47080;BME280;33067;49.296;14.470;2023-04-03T04:48:09;97669.10;;;0.80;50.33
47080;BME280;33067;49.296;14.470;2023-04-03T04:50:34;97668.70;;;0.76;51.63
47080;BME280;33067;49.296;14.470;2023-04-03T04:53:00;97671.37;;;1.36;49.89
47080;BME280;33067;49.296;14.470;2023-04-03T04:55:26;97668.39;;;1.41;49.59
47080;BME280;33067;49.296;14.470;2023-04-03T04:57:51;97663.38;;;1.55;50.30
47080;BME280;33067;49.296;14.470;2023-04-03T05:00:17;97666.33;;;2.14;50.21
47080;BME280;33067;49.296;14.470;2023-04-03T05:02:42;97669.77;;;1.87;49.92
47080;BME280;33067;49.296;14.470;2023-04-03T05:05:09;97667.62;;;1.64;49.95
47080;BME280;33067;49.296;14.470;2023-04-03T05:07:34;97679.17;;;1.02;51.43
47080;BME280;33067;49.296;14.470;2023-04-03T05:09:59;97678.56;;;0.91;52.80
47080;BME280;33067;49.296;14.470;2023-04-03T05:12:25;97682.89;;;1.55;50.96
47080;BME280;33067;49.296;14.470;2023-04-03T05:14:50;97678.02;;;1.68;50.69
47080;BME280;33067;49.296;14.470;2023-04-03T05:17:16;97683.27;;;1.58;51.19
47080;BME280;33067;49.296;14.470;2023-04-03T05:19:42;97692.55;;;1.24;52.43
47080;BME280;33067;49.296;14.470;2023-04-03T05:22:07;97695.59;;;0.59;52.12
47080;BME280;33067;49.296;14.470;2023-04-03T05:24:33;97695.13;;;0.22;53.78
47080;BME280;33067;49.296;14.470;2023-04-03T05:26:59;97698.84;;;-0.40;54.56
47080;BME280;33067;49.296;14.470;2023-04-03T05:29:24;97703.47;;;-0.81;56.02
47080;BME280;33067;49.296;14.470;2023-04-03T05:31:50;97707.05;;;-0.27;55.14
47080;BME280;33067;49.296;14.470;2023-04-03T05:34:16;97712.41;;;1.03;51.81
47080;BME280;33067;49.296;14.470;2023-04-03T05:36:42;97712.53;;;0.60;51.21
47080;BME280;33067;49.296;14.470;2023-04-03T05:39:07;97722.88;;;0.88;49.34
47080;BME280;33067;49.296;14.470;2023-04-03T05:41:32;97714.84;;;0.45;50.40
47080;BME280;33067;49.296;14.470;2023-04-03T05:43:58;97722.38;;;1.40;49.64
47080;BME280;33067;49.296;14.470;2023-04-03T05:46:23;97724.41;;;0.94;49.40
47080;BME280;33067;49.296;14.470;2023-04-03T05:48:49;97729.75;;;1.91;47.56
47080;BME280;33067;49.296;14.470;2023-04-03T05:51:17;97732.31;;;0.33;47.55
47080;BME280;33067;49.296;14.470;2023-04-03T05:53:40;97738.95;;;0.34;47.97
47080;BME280;33067;49.296;14.470;2023-04-03T05:56:06;97736.12;;;0.62;48.01
47080;BME280;33067;49.296;14.470;2023-04-03T05:58:31;97736.98;;;0.03;48.67
47080;BME280;33067;49.296;14.470;2023-04-03T06:00:57;97747.80;;;-0.45;50.72
47080;BME280;33067;49.296;14.470;2023-04-03T06:03:22;97746.84;;;0.31;49.16
47080;BME280;33067;49.296;14.470;2023-04-03T06:05:48;97752.57;;;0.97;47.54
47080;BME280;33067;49.296;14.470;2023-04-03T06:08:14;97749.63;;;0.75;48.38
47080;BME280;33067;49.296;14.470;2023-04-03T06:10:39;97752.44;;;-0.81;49.82
47080;BME280;33067;49.296;14.470;2023-04-03T06:13:05;97752.18;;;-0.38;49.07
47080;BME280;33067;49.296;14.470;2023-04-03T06:15:30;97748.30;;;-0.42;49.80
47080;BME280;33067;49.296;14.470;2023-04-03T06:17:56;97754.99;;;-0.26;49.55
47080;BME280;33067;49.296;14.470;2023-04-03T06:20:22;97750.30;;;0.58;48.54
47080;BME280;33067;49.296;14.470;2023-04-03T06:22:47;97755.56;;;-0.50;49.68
47080;BME280;33067;49.296;14.470;2023-04-03T06:25:13;97759.72;;;0.64;48.16
47080;BME280;33067;49.296;14.470;2023-04-03T06:27:39;97765.21;;;-0.35;49.96
47080;BME280;33067;49.296;14.470;2023-04-03T06:30:05;97763.14;;;0.06;49.17
47080;BME280;33067;49.296;14.470;2023-04-03T06:32:29;97764.93;;;0.04;48.80
47080;BME280;33067;49.296;14.470;2023-04-03T06:34:54;97762.52;;;-0.58;49.94
47080;BME280;33067;49.296;14.470;2023-04-03T06:37:22;97769.01;;;-0.24;50.06
47080;BME280;33067;49.296;14.470;2023-04-03T06:39:46;97780.64;;;-0.45;49.10
47080;BME280;33067;49.296;14.470;2023-04-03T06:42:11;97780.30;;;-0.51;49.62
47080;BME280;33067;49.296;14.470;2023-04-03T06:44:36;97777.14;;;0.17;48.78
47080;BME280;33067;49.296;14.470;2023-04-03T06:47:02;97777.95;;;0.40;48.05
47080;BME280;33067;49.296;14.470;2023-04-03T06:49:27;97794.09;;;-0.69;49.47
47080;BME280;33067;49.296;14.470;2023-04-03T06:51:53;97783.42;;;-0.74;49.63
47080;BME280;33067;49.296;14.470;2023-04-03T06:54:18;97792.09;;;-0.53;49.78
47080;BME280;33067;49.296;14.470;2023-04-03T06:56:44;97798.85;;;-0.63;49.00
47080;BME280;33067;49.296;14.470;2023-04-03T06:59:10;97792.61;;;0.01;48.23
47080;BME280;33067;49.296;14.470;2023-04-03T07:01:36;97793.53;;;-0.23;48.73
47080;BME280;33067;49.296;14.470;2023-04-03T07:04:01;97793.98;;;-0.19;48.89
47080;BME280;33067;49.296;14.470;2023-04-03T07:06:27;97803.75;;;0.43;47.83
47080;BME280;33067;49.296;14.470;2023-04-03T07:08:53;97802.71;;;1.26;45.51
47080;BME280;33067;49.296;14.470;2023-04-03T07:11:18;97805.04;;;0.45;46.68
47080;BME280;33067;49.296;14.470;2023-04-03T07:13:44;97812.55;;;-0.15;48.18
47080;BME280;33067;49.296;14.470;2023-04-03T07:16:10;97806.66;;;-0.04;48.91
47080;BME280;33067;49.296;14.470;2023-04-03T07:18:36;97834.27;;;-0.56;49.33
47080;BME280;33067;49.296;14.470;2023-04-03T07:21:02;97823.54;;;-0.79;49.64
47080;BME280;33067;49.296;14.470;2023-04-03T07:23:27;97825.05;;;-0.10;49.09
47080;BME280;33067;49.296;14.470;2023-04-03T07:25:53;97822.54;;;0.41;47.11
47080;BME280;33067;49.296;14.470;2023-04-03T07:28:20;97828.61;;;0.85;46.36
47080;BME280;33067;49.296;14.470;2023-04-03T07:30:44;97833.11;;;0.40;46.32
47080;BME280;33067;49.296;14.470;2023-04-03T07:33:09;97833.86;;;0.21;47.80
47080;BME280;33067;49.296;14.470;2023-04-03T07:35:35;97831.16;;;0.90;46.34
47080;BME280;33067;49.296;14.470;2023-04-03T07:38:01;97836.56;;;-0.08;47.27
47080;BME280;33067;49.296;14.470;2023-04-03T07:40:26;97840.48;;;0.03;47.55
47080;BME280;33067;49.296;14.470;2023-04-03T07:42:52;97841.03;;;0.59;45.56
47080;BME280;33067;49.296;14.470;2023-04-03T07:45:18;97853.55;;;-0.02;46.77
47080;BME280;33067;49.296;14.470;2023-04-03T07:47:43;97848.05;;;0.43;46.20
47080;BME280;33067;49.296;14.470;2023-04-03T07:50:09;97850.34;;;1.15;44.57
47080;BME280;33067;49.296;14.470;2023-04-03T07:52:34;97844.91;;;0.73;44.69
47080;BME280;33067;49.296;14.470;2023-04-03T07:54:59;97841.59;;;0.14;46.68
47080;BME280;33067;49.296;14.470;2023-04-03T07:57:25;97853.98;;;0.05;47.56
47080;BME280;33067;49.296;14.470;2023-04-03T07:59:51;97849.75;;;0.11;47.93
47080;BME280;33067;49.296;14.470;2023-04-03T08:02:17;97848.12;;;1.31;45.44
47080;BME280;33067;49.296;14.470;2023-04-03T08:04:42;97848.68;;;2.07;44.23
47080;BME280;33067;49.296;14.470;2023-04-03T08:07:08;97850.20;;;1.34;44.55
47080;BME280;33067;49.296;14.470;2023-04-03T08:09:34;97853.01;;;1.35;43.79
47080;BME280;33067;49.296;14.470;2023-04-03T08:11:59;97853.23;;;0.54;45.54
47080;BME280;33067;49.296;14.470;2023-04-03T08:14:25;97852.03;;;0.76;45.18
47080;BME280;33067;49.296;14.470;2023-04-03T08:16:50;97854.83;;;1.04;44.81
47080;BME280;33067;49.296;14.470;2023-04-03T08:19:16;97854.21;;;-0.13;46.88
47080;BME280;33067;49.296;14.470;2023-04-03T08:21:41;97855.77;;;0.93;45.88
47080;BME280;33067;49.296;14.470;2023-04-03T08:24:06;97854.85;;;0.85;43.28
47080;BME280;33067;49.296;14.470;2023-04-03T08:26:31;97856.27;;;0.93;43.36
47080;BME280;33067;49.296;14.470;2023-04-03T08:28:56;97854.01;;;1.03;43.61
47080;BME280;33067;49.296;14.470;2023-04-03T08:31:22;97866.83;;;0.39;43.32
47080;BME280;33067;49.296;14.470;2023-04-03T08:33:48;97860.80;;;0.15;44.67
47080;BME280;33067;49.296;14.470;2023-04-03T08:36:19;97869.49;;;0.18;44.34
47080;BME280;33067;49.296;14.470;2023-04-03T08:38:39;97865.10;;;1.22;43.29
47080;BME280;33067;49.296;14.470;2023-04-03T08:41:10;97866.51;;;0.59;43.32
47080;BME280;33067;49.296;14.470;2023-04-03T08:43:36;97863.64;;;2.29;41.36
47080;BME280;33067;49.296;14.470;2023-04-03T08:45:56;97865.42;;;1.66;41.73
47080;BME280;33067;49.296;14.470;2023-04-03T08:48:25;97863.68;;;1.36;43.02
47080;BME280;33067;49.296;14.470;2023-04-03T08:50:50;97872.87;;;1.67;41.96
47080;BME280;33067;49.296;14.470;2023-04-03T08:53:15;97868.17;;;1.04;42.98
47080;BME280;33067;49.296;14.470;2023-04-03T08:55:40;97871.72;;;1.28;42.58
47080;BME280;33067;49.296;14.470;2023-04-03T08:58:05;97874.84;;;0.76;43.77
47080;BME280;33067;49.296;14.470;2023-04-03T09:00:32;97876.97;;;0.17;45.48
47080;BME280;33067;49.296;14.470;2023-04-03T09:02:55;97876.69;;;1.34;43.50
47080;BME280;33067;49.296;14.470;2023-04-03T09:05:24;97879.53;;;1.59;43.22
47080;BME280;33067;49.296;14.470;2023-04-03T09:07:47;97883.84;;;2.24;42.39
47080;BME280;33067;49.296;14.470;2023-04-03T09:10:12;97878.49;;;1.04;42.87
47080;BME280;33067;49.296;14.470;2023-04-03T09:12:39;97880.63;;;1.48;43.08
47080;BME280;33067;49.296;14.470;2023-04-03T09:15:10;97879.99;;;1.13;42.81
47080;BME280;33067;49.296;14.470;2023-04-03T09:17:37;97884.06;;;1.08;42.72
47080;BME280;33067;49.296;14.470;2023-04-03T09:19:56;97882.71;;;2.27;41.01
47080;BME280;33067;49.296;14.470;2023-04-03T09:22:21;97883.81;;;1.72;42.13
47080;BME280;33067;49.296;14.470;2023-04-03T09:24:46;97891.78;;;1.22;42.50
47080;BME280;33067;49.296;14.470;2023-04-03T09:27:11;97887.06;;;2.17;40.70
47080;BME280;33067;49.296;14.470;2023-04-03T09:29:37;97888.55;;;1.59;41.51
47080;BME280;33067;49.296;14.470;2023-04-03T09:32:02;97890.27;;;1.75;41.20
47080;BME280;33067;49.296;14.470;2023-04-03T09:34:27;97887.66;;;1.61;41.74
47080;BME280;33067;49.296;14.470;2023-04-03T09:36:52;97887.94;;;2.88;39.46
47080;BME280;33067;49.296;14.470;2023-04-03T09:39:18;97878.62;;;3.19;38.29
47080;BME280;33067;49.296;14.470;2023-04-03T09:44:20;97888.06;;;2.85;38.49
47080;BME280;33067;49.296;14.470;2023-04-03T09:46:34;97887.89;;;2.64;38.70
47080;BME280;33067;49.296;14.470;2023-04-03T09:49:00;97888.31;;;2.20;39.46
47080;BME280;33067;49.296;14.470;2023-04-03T09:51:26;97890.78;;;2.20;39.84
47080;BME280;33067;49.296;14.470;2023-04-03T09:53:51;97892.75;;;1.39;41.05
47080;BME280;33067;49.296;14.470;2023-04-03T09:56:22;97892.15;;;2.25;38.71
47080;BME280;33067;49.296;14.470;2023-04-03T09:58:43;97889.56;;;3.02;38.28
47080;BME280;33067;49.296;14.470;2023-04-03T10:03:34;97887.31;;;1.77;39.81
47080;BME280;33067;49.296;14.470;2023-04-03T10:05:58;97881.63;;;2.71;39.62
47080;BME280;33067;49.296;14.470;2023-04-03T10:08:25;97882.55;;;2.19;39.13
47080;BME280;33067;49.296;14.470;2023-04-03T10:13:16;97884.64;;;2.62;38.65
47080;BME280;33067;49.296;14.470;2023-04-03T10:15:42;97879.76;;;1.68;39.17
47080;BME280;33067;49.296;14.470;2023-04-03T10:18:16;97880.50;;;1.90;38.91
47080;BME280;33067;49.296;14.470;2023-04-03T10:20:34;97874.92;;;3.31;35.56
47080;BME280;33067;49.296;14.470;2023-04-03T10:23:05;97877.08;;;3.12;35.68
47080;BME280;33067;49.296;14.470;2023-04-03T10:25:28;97883.31;;;3.08;35.58
47080;BME280;33067;49.296;14.470;2023-04-03T10:27:55;97872.53;;;2.47;37.01
47080;BME280;33067;49.296;14.470;2023-04-03T10:32:47;97875.45;;;2.70;37.16
47080;BME280;33067;49.296;14.470;2023-04-03T10:35:12;97861.84;;;2.88;35.93
47080;BME280;33067;49.296;14.470;2023-04-03T10:37:34;97867.52;;;2.33;36.93
47080;BME280;33067;49.296;14.470;2023-04-03T10:39:59;97869.01;;;2.80;34.71
47080;BME280;33067;49.296;14.470;2023-04-03T10:42:27;97863.11;;;2.59;35.15
47080;BME280;33067;49.296;14.470;2023-04-03T10:44:59;97865.59;;;3.04;34.27
47080;BME280;33067;49.296;14.470;2023-04-03T10:47:16;97872.56;;;2.72;35.42
47080;BME280;33067;49.296;14.470;2023-04-03T10:49:44;97877.04;;;1.21;37.53
47080;BME280;33067;49.296;14.470;2023-04-03T10:52:07;97867.45;;;0.77;38.97
47080;BME280;33067;49.296;14.470;2023-04-03T10:54:32;97864.24;;;1.76;37.00
47080;BME280;33067;49.296;14.470;2023-04-03T10:56:55;97860.69;;;3.12;35.58
47080;BME280;33067;49.296;14.470;2023-04-03T10:59:25;97854.30;;;2.47;36.83
47080;BME280;33067;49.296;14.470;2023-04-03T11:01:47;97856.51;;;3.31;35.72
47080;BME280;33067;49.296;14.470;2023-04-03T11:04:11;97847.69;;;3.86;33.21
47080;BME280;33067;49.296;14.470;2023-04-03T11:06:39;97845.21;;;3.79;33.09
47080;BME280;33067;49.296;14.470;2023-04-03T11:09:03;97842.08;;;2.91;34.32
47080;BME280;33067;49.296;14.470;2023-04-03T11:11:29;97839.56;;;3.30;33.67
47080;BME280;33067;49.296;14.470;2023-04-03T11:13:56;97851.70;;;0.74;38.33
47080;BME280;33067;49.296;14.470;2023-04-03T11:16:21;97851.75;;;1.73;37.44
47080;BME280;33067;49.296;14.470;2023-04-03T11:18:47;97838.72;;;2.76;36.32
47080;BME280;33067;49.296;14.470;2023-04-03T11:21:14;97840.48;;;2.39;36.03
47080;BME280;33067;49.296;14.470;2023-04-03T11:23:36;97844.29;;;1.93;38.39
47080;BME280;33067;49.296;14.470;2023-04-03T11:26:08;97843.95;;;1.95;37.67
47080;BME280;33067;49.296;14.470;2023-04-03T11:28:25;97840.92;;;1.64;38.53
47080;BME280;33067;49.296;14.470;2023-04-03T11:30:57;97835.37;;;2.14;37.36
47080;BME280;33067;49.296;14.470;2023-04-03T11:33:26;97830.66;;;2.15;37.43
47080;BME280;33067;49.296;14.470;2023-04-03T11:35:44;97839.44;;;1.77;38.56
47080;BME280;33067;49.296;14.470;2023-04-03T11:38:17;97826.84;;;1.69;37.89
47080;BME280;33067;49.296;14.470;2023-04-03T11:40:35;97842.57;;;1.54;38.31
47080;BME280;33067;49.296;14.470;2023-04-03T11:43:06;97829.07;;;1.54;38.08
47080;BME280;33067;49.296;14.470;2023-04-03T11:45:32;97831.29;;;1.19;38.26
47080;BME280;33067;49.296;14.470;2023-04-03T11:47:51;97827.27;;;1.56;36.27
47080;BME280;33067;49.296;14.470;2023-04-03T11:52:57;97828.83;;;1.50;37.82
47080;BME280;33067;49.296;14.470;2023-04-03T11:57:44;97830.14;;;2.33;35.73
47080;BME280;33067;49.296;14.470;2023-04-03T11:59:58;97832.16;;;2.56;35.23
47080;BME280;33067;49.296;14.470;2023-04-03T12:02:37;97823.25;;;2.76;34.89
47080;BME280;33067;49.296;14.470;2023-04-03T12:07:18;97819.46;;;3.00;33.75
47080;BME280;33067;49.296;14.470;2023-04-03T12:09:56;97825.17;;;3.11;34.83
47080;BME280;33067;49.296;14.470;2023-04-03T12:14:32;97816.00;;;3.77;32.05
47080;BME280;33067;49.296;14.470;2023-04-03T12:16:57;97805.11;;;4.16;32.03
47080;BME280;33067;49.296;14.470;2023-04-03T12:19:29;97796.60;;;4.73;30.42
47080;BME280;33067;49.296;14.470;2023-04-03T12:22:05;97794.45;;;4.50;31.50
47080;BME280;33067;49.296;14.470;2023-04-03T12:24:25;97788.02;;;2.92;32.95
47080;BME280;33067;49.296;14.470;2023-04-03T12:26:43;97792.13;;;3.29;33.14
47080;BME280;33067;49.296;14.470;2023-04-03T12:29:15;97793.26;;;3.53;33.34
47080;BME280;33067;49.296;14.470;2023-04-03T12:31:41;97797.35;;;2.33;33.74
47080;BME280;33067;49.296;14.470;2023-04-03T12:34:05;97799.06;;;2.16;34.36
47080;BME280;33067;49.296;14.470;2023-04-03T12:36:28;97788.06;;;2.58;33.53
47080;BME280;33067;49.296;14.470;2023-04-03T12:39:01;97784.93;;;2.70;33.99
47080;BME280;33067;49.296;14.470;2023-04-03T12:41:19;97789.52;;;3.40;33.38
47080;BME280;33067;49.296;14.470;2023-04-03T12:43:47;97782.20;;;4.15;32.95
47080;BME280;33067;49.296;14.470;2023-04-03T12:46:04;97776.28;;;4.39;32.06
47080;BME280;33067;49.296;14.470;2023-04-03T12:48:31;97778.97;;;3.41;32.58
47080;BME280;33067;49.296;14.470;2023-04-03T12:50:54;97772.11;;;3.79;32.35
47080;BME280;33067;49.296;14.470;2023-04-03T12:53:21;97777.95;;;2.47;34.18
47080;BME280;33067;49.296;14.470;2023-04-03T12:55:45;97781.82;;;1.94;34.71
47080;BME280;33067;49.296;14.470;2023-04-03T12:58:15;97783.92;;;1.93;35.17
47080;BME280;33067;49.296;14.470;2023-04-03T13:00:36;97789.46;;;1.39;35.18
47080;BME280;33067;49.296;14.470;2023-04-03T13:03:02;97781.01;;;1.91;35.69
47080;BME280;33067;49.296;14.470;2023-04-03T13:05:28;97777.94;;;2.42;34.61
47080;BME280;33067;49.296;14.470;2023-04-03T13:07:55;97775.49;;;4.11;33.32
47080;BME280;33067;49.296;14.470;2023-04-03T13:10:18;97775.08;;;3.22;33.34
47080;BME280;33067;49.296;14.470;2023-04-03T13:12:47;97765.56;;;4.34;32.51
47080;BME280;33067;49.296;14.470;2023-04-03T13:15:15;97773.20;;;4.28;32.53